Time;durP1;ratioP1;P1;durP2;ratioP2;P2;SDS_P1;SDS_P2;PMS_P1;PMS_P2;Temp;Humidity;BMP_temperature;BMP_pressure;BME280_temperature;BME280_humidity;BME280_pressure;Samples;Min_cycle;Max_cycle;Signal;HPM_P1;HPM_P2
2021/10/03 00:00:36;;;;;;;9.15;4.20;;;;;;;;;;4945303;28;20042;-59
2021/10/03 00:03:04;;;;;;;6.65;3.95;;;;;;;;;;4926779;28;20039;-58
2021/10/03 00:05:30;;;;;;;4.38;3.65;;;;;;;;;;4924826;28;20023;-59
2021/10/03 00:07:58;;;;;;;6.82;3.72;;;;;;;;;;4932383;28;20470;-58
2021/10/03 00:10:28;;;;;;;6.57;3.70;;;;;;;;;;4939409;28;20471;-57
2021/10/03 00:12:54;;;;;;;;;;;;;;;;;;4934255;28;20028;-57
2021/10/03 00:15:21;;;;;;;7.03;3.65;;;;;;;;;;4929742;28;20242;-58
2021/10/03 00:17:48;;;;;;;5.32;3.45;;;;;;;;;;4930600;28;20031;-58
2021/10/03 00:20:15;;;;;;;6.30;4.10;;;;;;;;;;4925504;28;20066;-57
2021/10/03 00:22:40;;;;;;;5.10;4.07;;;;;;;;;;4936390;28;20509;-58
2021/10/03 00:25:09;;;;;;;6.13;3.63;;;;;;;;;;4948917;28;20036;-57
2021/10/03 00:27:35;;;;;;;5.85;3.58;;;;;;;;;;4927219;28;20055;-57
2021/10/03 00:30:01;;;;;;;6.63;4.00;;;;;;;;;;4933720;28;20031;-58
2021/10/03 00:32:26;;;;;;;5.25;3.80;;;;;;;;;;4929315;28;20077;-57
2021/10/03 00:34:52;;;;;;;7.93;3.90;;;;;;;;;;4928551;28;20487;-58
2021/10/03 00:37:18;;;;;;;5.53;3.78;;;;;;;;;;4928402;28;20115;-58
2021/10/03 00:39:44;;;;;;;7.35;3.97;;;;;;;;;;4928430;28;20142;-58
2021/10/03 00:42:09;;;;;;;6.72;3.92;;;;;;;;;;4926742;28;20023;-58
2021/10/03 00:44:35;;;;;;;7.00;3.90;;;;;;;;;;4925225;28;20089;-58
2021/10/03 00:47:01;;;;;;;6.10;3.90;;;;;;;;;;4935597;28;20035;-58
2021/10/03 00:49:26;;;;;;;8.23;4.25;;;;;;;;;;4928276;28;20388;-58
2021/10/03 00:51:52;;;;;;;5.40;3.88;;;;;;;;;;4927016;28;20044;-58
2021/10/03 00:54:17;;;;;;;5.78;4.15;;;;;;;;;;4927420;28;20481;-58
2021/10/03 00:56:44;;;;;;;4.53;3.80;;;;;;;;;;4951528;28;20224;-58
2021/10/03 00:59:09;;;;;;;5.35;3.58;;;;;;;;;;4929577;28;20081;-58
2021/10/03 01:01:35;;;;;;;10.65;4.10;;;;;;;;;;4932611;28;20025;-57
2021/10/03 01:04:01;;;;;;;5.30;3.88;;;;;;;;;;4930279;28;20035;-59
2021/10/03 01:06:26;;;;;;;6.20;4.25;;;;;;;;;;4936220;28;20115;-58
2021/10/03 01:08:52;;;;;;;5.60;3.67;;;;;;;;;;4929478;28;20110;-58
2021/10/03 01:11:17;;;;;;;6.70;4.03;;;;;;;;;;4925168;28;20032;-59
2021/10/03 01:13:46;;;;;;;5.10;3.42;;;;;;;;;;4925760;28;20043;-58
2021/10/03 01:16:12;;;;;;;6.32;3.50;;;;;;;;;;4936744;28;20028;-58
2021/10/03 01:18:37;;;;;;;7.10;3.85;;;;;;;;;;4927243;28;20126;-58
2021/10/03 01:21:05;;;;;;;6.80;4.30;;;;;;;;;;4932442;28;20446;-58
2021/10/03 01:23:31;;;;;;;5.88;4.00;;;;;;;;;;4935342;28;20378;-58
2021/10/03 01:25:56;;;;;;;7.95;3.95;;;;;;;;;;4920906;28;20407;-58
2021/10/03 01:28:22;;;;;;;7.05;3.72;;;;;;;;;;4933086;28;20028;-57
2021/10/03 01:30:52;;;;;;;6.20;3.97;;;;;;;;;;4926802;28;20023;-59
2021/10/03 01:33:20;;;;;;;5.63;3.80;;;;;;;;;;4927843;28;20051;-58
2021/10/03 01:35:46;;;;;;;6.07;4.40;;;;;;;;;;4925959;28;20082;-59
2021/10/03 01:38:14;;;;;;;6.72;4.03;;;;;;;;;;4932953;28;20486;-58
2021/10/03 01:40:44;;;;;;;5.60;3.83;;;;;;;;;;4942154;28;20422;-58
2021/10/03 01:43:10;;;;;;;9.30;4.18;;;;;;;;;;4941593;28;20033;-59
2021/10/03 01:45:36;;;;;;;6.47;3.85;;;;;;;;;;4921433;28;20235;-59
2021/10/03 01:48:13;;;;;;;6.88;4.05;;;;;;;;;;4930867;28;20515;-59
2021/10/03 01:50:47;;;;;;;7.78;3.75;;;;;;;;;;4929929;28;20344;-59
2021/10/03 01:53:16;;;;;;;8.63;4.22;;;;;;;;;;4939043;28;20422;-59
2021/10/03 01:55:42;;;;;;;11.48;4.28;;;;;;;;;;4933088;28;20024;-58
2021/10/03 01:58:08;;;;;;;7.93;4.38;;;;;;;;;;4938376;28;20611;-58
2021/10/03 02:00:36;;;;;;;4.90;3.90;;;;;;;;;;4926986;28;20046;-59
2021/10/03 02:03:04;;;;;;;8.70;4.13;;;;;;;;;;4928082;28;20028;-58
2021/10/03 02:05:41;;;;;;;8.55;4.15;;;;;;;;;;4950403;28;20056;-58
2021/10/03 02:08:08;;;;;;;4.97;3.75;;;;;;;;;;4920903;28;20023;-59
2021/10/03 02:10:36;;;;;;;6.43;4.15;;;;;;;;;;4924293;28;20047;-58
2021/10/03 02:13:03;;;;;;;8.18;3.90;;;;;;;;;;4926831;28;20070;-57
2021/10/03 02:15:29;;;;;;;6.07;3.90;;;;;;;;;;4950109;28;20086;-59
2021/10/03 02:17:54;;;;;;;6.05;3.88;;;;;;;;;;4933347;28;20032;-58
2021/10/03 02:20:20;;;;;;;6.15;4.10;;;;;;;;;;4941061;28;20480;-57
2021/10/03 02:22:47;;;;;;;7.55;3.60;;;;;;;;;;4927084;28;20403;-59
2021/10/03 02:25:13;;;;;;;6.93;3.75;;;;;;;;;;4939881;28;20045;-59
2021/10/03 02:27:38;;;;;;;6.00;4.10;;;;;;;;;;4930910;28;20101;-59
2021/10/03 02:30:05;;;;;;;5.40;3.75;;;;;;;;;;4935793;28;20517;-59
2021/10/03 02:32:31;;;;;;;7.53;3.60;;;;;;;;;;4923534;28;20035;-59
2021/10/03 02:34:57;;;;;;;5.00;3.70;;;;;;;;;;4927755;28;20034;-59
2021/10/03 02:37:26;;;;;;;5.65;3.95;;;;;;;;;;4937467;28;20463;-58
2021/10/03 02:39:52;;;;;;;5.05;3.70;;;;;;;;;;4952695;28;20038;-59
2021/10/03 02:42:19;;;;;;;4.72;3.47;;;;;;;;;;4934009;28;20117;-60
2021/10/03 02:44:44;;;;;;;7.53;4.07;;;;;;;;;;4934981;28;20097;-59
2021/10/03 02:47:13;;;;;;;6.30;4.28;;;;;;;;;;4935742;28;20037;-58
2021/10/03 02:49:44;;;;;;;6.73;4.40;;;;;;;;;;4935948;28;20039;-59
2021/10/03 02:52:10;;;;;;;5.70;3.92;;;;;;;;;;4924974;28;20032;-58
2021/10/03 02:54:37;;;;;;;7.28;4.25;;;;;;;;;;4930798;28;20043;-58
2021/10/03 02:57:05;;;;;;;6.63;4.43;;;;;;;;;;4924317;28;20282;-58
2021/10/03 02:59:30;;;;;;;6.55;4.20;;;;;;;;;;4950550;28;20048;-58
2021/10/03 03:01:55;;;;;;;6.15;4.10;;;;;;;;;;4929259;28;20032;-58
2021/10/03 03:04:21;;;;;;;7.25;3.60;;;;;;;;;;4950409;28;20055;-59
2021/10/03 03:06:46;;;;;;;7.00;3.85;;;;;;;;;;4934209;28;20032;-58
2021/10/03 03:09:12;;;;;;;5.78;3.78;;;;;;;;;;4935103;28;20024;-58
2021/10/03 03:11:37;;;;;;;5.43;3.80;;;;;;;;;;4927999;28;20050;-58
2021/10/03 03:14:03;;;;;;;7.40;4.57;;;;;;;;;;4937492;28;20146;-58
2021/10/03 03:16:28;;;;;;;7.10;3.90;;;;;;;;;;4927628;28;20042;-58
2021/10/03 03:18:53;;;;;;;6.07;3.72;;;;;;;;;;4928596;28;20027;-59
2021/10/03 03:21:19;;;;;;;8.65;4.25;;;;;;;;;;4931016;28;20110;-58
2021/10/03 03:23:44;;;;;;;8.60;4.15;;;;;;;;;;4931083;28;20028;-58
2021/10/03 03:26:11;;;;;;;7.32;4.22;;;;;;;;;;4945483;28;20040;-60
2021/10/03 03:28:36;;;;;;;6.53;4.00;;;;;;;;;;4936210;28;20090;-59
2021/10/03 03:31:02;;;;;;;5.32;3.95;;;;;;;;;;4926969;28;20388;-59
2021/10/03 03:33:27;;;;;;;4.80;3.50;;;;;;;;;;4931495;28;20486;-60
2021/10/03 03:35:53;;;;;;;6.30;3.95;;;;;;;;;;4940167;28;20397;-59
2021/10/03 03:38:18;;;;;;;5.78;3.92;;;;;;;;;;4939598;28;20025;-59
2021/10/03 03:40:44;;;;;;;7.43;4.20;;;;;;;;;;4926240;28;20038;-59
2021/10/03 03:43:09;;;;;;;6.18;4.28;;;;;;;;;;4927460;28;20033;-59
2021/10/03 03:45:35;;;;;;;6.85;4.10;;;;;;;;;;4934003;28;20032;-58
2021/10/03 03:48:01;;;;;;;6.13;4.20;;;;;;;;;;4931281;28;20051;-59
2021/10/03 03:50:29;;;;;;;6.72;4.13;;;;;;;;;;4931749;28;20031;-59
2021/10/03 03:52:55;;;;;;;6.53;4.30;;;;;;;;;;4939486;28;20101;-59
2021/10/03 03:55:21;;;;;;;5.55;3.85;;;;;;;;;;4945884;28;20033;-59
2021/10/03 03:57:46;;;;;;;7.43;3.95;;;;;;;;;;4943052;28;20027;-59
2021/10/03 04:00:12;;;;;;;7.10;3.95;;;;;;;;;;4924769;28;20042;-59
2021/10/03 04:02:38;;;;;;;6.80;3.85;;;;;;;;;;4952442;28;20043;-59
2021/10/03 04:05:05;;;;;;;6.90;4.47;;;;;;;;;;4921037;28;20418;-59
2021/10/03 04:07:30;;;;;;;6.03;3.50;;;;;;;;;;4933952;28;20031;-59
2021/10/03 04:09:56;;;;;;;6.10;3.65;;;;;;;;;;4924182;28;20091;-59
2021/10/03 04:12:21;;;;;;;6.18;3.85;;;;;;;;;;4940945;28;20031;-59
2021/10/03 04:14:47;;;;;;;7.72;3.67;;;;;;;;;;4927625;28;20401;-58
2021/10/03 04:17:12;;;;;;;7.35;4.05;;;;;;;;;;4936199;28;20466;-59
2021/10/03 04:19:38;;;;;;;6.68;4.18;;;;;;;;;;4929538;28;20111;-58
2021/10/03 04:22:03;;;;;;;5.20;3.80;;;;;;;;;;4933802;28;20031;-58
2021/10/03 04:24:29;;;;;;;8.38;3.97;;;;;;;;;;4931374;28;20368;-58
2021/10/03 04:26:54;;;;;;;4.55;3.47;;;;;;;;;;4935615;28;20032;-58
2021/10/03 04:29:19;;;;;;;8.73;3.42;;;;;;;;;;4946327;28;20078;-58
2021/10/03 04:31:45;;;;;;;5.63;3.90;;;;;;;;;;4934900;28;20114;-58
2021/10/03 04:34:10;;;;;;;6.50;4.03;;;;;;;;;;4926703;28;20114;-59
2021/10/03 04:36:36;;;;;;;8.88;3.83;;;;;;;;;;4925233;28;20021;-59
2021/10/03 04:39:02;;;;;;;6.18;3.65;;;;;;;;;;4939171;28;20025;-59
2021/10/03 04:41:27;;;;;;;4.82;3.55;;;;;;;;;;4925957;28;20035;-58
2021/10/03 04:43:53;;;;;;;6.20;3.63;;;;;;;;;;4930389;28;20035;-59
2021/10/03 04:46:18;;;;;;;7.68;3.72;;;;;;;;;;4938756;28;20032;-59
2021/10/03 04:48:44;;;;;;;8.27;4.85;;;;;;;;;;4932597;28;20039;-59
2021/10/03 04:51:09;;;;;;;8.27;3.78;;;;;;;;;;4939494;28;20027;-59
2021/10/03 04:53:35;;;;;;;7.75;3.72;;;;;;;;;;4929828;28;20032;-59
2021/10/03 04:56:00;;;;;;;11.35;4.50;;;;;;;;;;4945033;28;20025;-58
2021/10/03 04:58:26;;;;;;;8.68;4.30;;;;;;;;;;4934730;28;20339;-59
2021/10/03 05:00:51;;;;;;;6.25;4.00;;;;;;;;;;4937292;28;20127;-59
2021/10/03 05:03:18;;;;;;;6.40;3.72;;;;;;;;;;4924914;28;20023;-58
2021/10/03 05:05:44;;;;;;;5.43;3.78;;;;;;;;;;4948740;28;20541;-58
2021/10/03 05:08:12;;;;;;;8.68;4.43;;;;;;;;;;4927742;28;20119;-58
2021/10/03 05:10:38;;;;;;;5.10;3.70;;;;;;;;;;4935206;28;20040;-58
2021/10/03 05:13:04;;;;;;;6.25;3.97;;;;;;;;;;4923545;28;20077;-58
2021/10/03 05:15:29;;;;;;;7.75;3.70;;;;;;;;;;4934367;28;20032;-59
2021/10/03 05:17:54;;;;;;;5.45;3.70;;;;;;;;;;4928910;28;20112;-58
2021/10/03 05:20:20;;;;;;;5.57;3.95;;;;;;;;;;4926873;28;20036;-59
2021/10/03 05:22:45;;;;;;;5.40;3.67;;;;;;;;;;4939936;28;20062;-59
2021/10/03 05:25:11;;;;;;;5.93;3.70;;;;;;;;;;4933763;28;20036;-58
2021/10/03 05:27:36;;;;;;;5.35;3.50;;;;;;;;;;4938414;28;20187;-59
2021/10/03 05:30:03;;;;;;;5.15;3.80;;;;;;;;;;4929533;28;20489;-59
2021/10/03 05:32:28;;;;;;;5.32;3.28;;;;;;;;;;4921625;28;20036;-59
2021/10/03 05:34:54;;;;;;;5.75;3.40;;;;;;;;;;4931114;28;20081;-59
2021/10/03 05:37:19;;;;;;;8.45;3.55;;;;;;;;;;4923416;28;20539;-59
2021/10/03 05:39:45;;;;;;;6.72;3.42;;;;;;;;;;4938877;28;20042;-59
2021/10/03 05:42:10;;;;;;;5.25;3.38;;;;;;;;;;4932696;28;20065;-59
2021/10/03 05:44:35;;;;;;;5.05;3.65;;;;;;;;;;4925500;28;20452;-59
2021/10/03 05:47:01;;;;;;;8.45;4.55;;;;;;;;;;4925312;28;20043;-58
2021/10/03 05:49:26;;;;;;;7.72;4.22;;;;;;;;;;4952845;28;20028;-59
2021/10/03 05:51:52;;;;;;;6.65;4.03;;;;;;;;;;4943244;28;20054;-58
2021/10/03 05:54:18;;;;;;;5.75;3.78;;;;;;;;;;4946808;28;20038;-58
2021/10/03 05:56:43;;;;;;;4.70;3.50;;;;;;;;;;4929947;28;20032;-59
2021/10/03 05:59:12;;;;;;;6.15;3.38;;;;;;;;;;4944300;28;20171;-59
2021/10/03 06:01:40;;;;;;;7.13;3.80;;;;;;;;;;4933920;28;20032;-58
2021/10/03 06:04:07;;;;;;;8.87;4.60;;;;;;;;;;4936204;28;20271;-58
2021/10/03 06:06:32;;;;;;;8.20;4.25;;;;;;;;;;4935373;28;20047;-58
2021/10/03 06:08:58;;;;;;;6.32;3.25;;;;;;;;;;4933929;28;20294;-58
2021/10/03 06:11:23;;;;;;;6.90;3.28;;;;;;;;;;4948284;28;20488;-58
2021/10/03 06:13:49;;;;;;;4.72;3.50;;;;;;;;;;4941060;28;20028;-58
2021/10/03 06:16:14;;;;;;;6.50;4.13;;;;;;;;;;4926998;28;20028;-58
2021/10/03 06:18:40;;;;;;;8.85;3.60;;;;;;;;;;4931356;28;20027;-58
2021/10/03 06:21:13;;;;;;;6.05;4.18;;;;;;;;;;4942503;28;20048;-58
2021/10/03 06:23:38;;;;;;;6.40;3.85;;;;;;;;;;4923948;28;20131;-58
2021/10/03 06:26:04;;;;;;;7.45;3.85;;;;;;;;;;4935908;28;20472;-57
2021/10/03 06:28:29;;;;;;;8.15;3.90;;;;;;;;;;4927115;28;20046;-59
2021/10/03 06:30:55;;;;;;;5.07;3.28;;;;;;;;;;4926712;28;20028;-59
2021/10/03 06:33:20;;;;;;;6.30;3.50;;;;;;;;;;4937598;28;20398;-59
2021/10/03 06:35:45;;;;;;;5.57;3.83;;;;;;;;;;4924751;28;20142;-59
2021/10/03 06:38:11;;;;;;;5.40;3.80;;;;;;;;;;4952694;28;20123;-59
2021/10/03 06:40:36;;;;;;;5.10;3.40;;;;;;;;;;4931802;28;20028;-58
2021/10/03 06:43:02;;;;;;;7.03;3.42;;;;;;;;;;4933287;28;20437;-58
2021/10/03 06:45:27;;;;;;;5.00;3.30;;;;;;;;;;4918698;28;20043;-58
2021/10/03 06:47:53;;;;;;;5.95;3.65;;;;;;;;;;4921799;28;20032;-58
2021/10/03 06:50:19;;;;;;;5.40;3.63;;;;;;;;;;4937226;28;20029;-59
2021/10/03 06:52:45;;;;;;;6.68;4.10;;;;;;;;;;4933745;28;20135;-58
2021/10/03 06:55:10;;;;;;;7.47;3.78;;;;;;;;;;4927287;28;20046;-60
2021/10/03 06:57:35;;;;;;;4.03;3.13;;;;;;;;;;4927195;28;20814;-58
2021/10/03 07:00:02;;;;;;;8.95;3.17;;;;;;;;;;4938319;28;20043;-58
2021/10/03 07:02:29;;;;;;;10.10;3.38;;;;;;;;;;4935297;28;20386;-58
2021/10/03 07:04:55;;;;;;;4.13;3.30;;;;;;;;;;4963223;28;20126;-58
2021/10/03 07:07:21;;;;;;;6.90;3.10;;;;;;;;;;4933781;28;20114;-58
2021/10/03 07:09:48;;;;;;;6.75;3.45;;;;;;;;;;4926285;28;20039;-58
2021/10/03 07:12:14;;;;;;;6.95;3.50;;;;;;;;;;4932513;28;20720;-58
2021/10/03 07:14:42;;;;;;;5.30;3.80;;;;;;;;;;4926011;28;20117;-58
2021/10/03 07:17:09;;;;;;;;;;;;;;;;;;4923442;28;20117;-58
2021/10/03 07:19:35;;;;;;;3.92;2.72;;;;;;;;;;4925108;28;19921;-58
2021/10/03 07:22:02;;;;;;;4.78;3.22;;;;;;;;;;4925600;28;20032;-58
2021/10/03 07:24:28;;;;;;;5.30;3.50;;;;;;;;;;4930986;28;20067;-58
2021/10/03 07:26:53;;;;;;;5.30;3.13;;;;;;;;;;4928908;28;20051;-58
2021/10/03 07:29:18;;;;;;;5.50;3.22;;;;;;;;;;4927560;28;20031;-58
2021/10/03 07:31:44;;;;;;;5.40;3.10;;;;;;;;;;4936054;28;20038;-58
2021/10/03 07:34:09;;;;;;;5.30;2.90;;;;;;;;;;4942181;28;20028;-57
2021/10/03 07:36:35;;;;;;;5.93;3.22;;;;;;;;;;4925598;28;20321;-57
2021/10/03 07:39:00;;;;;;;6.25;3.60;;;;;;;;;;4931767;28;20698;-58
2021/10/03 07:41:26;;;;;;;6.75;3.42;;;;;;;;;;4952506;28;20111;-57
2021/10/03 07:43:51;;;;;;;5.85;3.15;;;;;;;;;;4929256;28;20142;-58
2021/10/03 07:46:17;;;;;;;5.68;3.70;;;;;;;;;;4927849;28;20020;-59
2021/10/03 07:48:44;;;;;;;5.60;3.50;;;;;;;;;;4928727;28;20077;-58
2021/10/03 07:51:10;;;;;;;6.45;3.30;;;;;;;;;;4919794;28;20502;-58
2021/10/03 07:53:37;;;;;;;4.10;3.17;;;;;;;;;;4946060;28;20116;-58
2021/10/03 07:56:03;;;;;;;4.80;3.15;;;;;;;;;;4929371;28;20554;-58
2021/10/03 07:58:28;;;;;;;6.15;3.65;;;;;;;;;;4927739;28;21104;-61
2021/10/03 08:00:54;;;;;;;4.65;3.15;;;;;;;;;;4937466;28;20058;-58
2021/10/03 08:03:21;;;;;;;5.28;3.20;;;;;;;;;;4937199;28;20054;-58
2021/10/03 08:05:46;;;;;;;4.90;3.38;;;;;;;;;;4926778;28;20443;-57
2021/10/03 08:08:12;;;;;;;4.07;2.92;;;;;;;;;;4940993;28;20047;-58
2021/10/03 08:10:37;;;;;;;4.28;3.55;;;;;;;;;;4932225;28;20031;-59
2021/10/03 08:13:03;;;;;;;6.93;3.50;;;;;;;;;;4927544;28;20502;-59
2021/10/03 08:15:28;;;;;;;6.03;3.70;;;;;;;;;;4926734;28;20106;-59
2021/10/03 08:17:55;;;;;;;6.15;2.95;;;;;;;;;;4934738;28;20138;-59
2021/10/03 08:20:21;;;;;;;3.95;3.03;;;;;;;;;;4931849;28;20064;-57
2021/10/03 08:22:47;;;;;;;4.30;3.20;;;;;;;;;;4937594;28;20033;-59
2021/10/03 08:25:13;;;;;;;7.10;3.42;;;;;;;;;;4927645;28;20294;-58
2021/10/03 08:27:39;;;;;;;5.10;3.03;;;;;;;;;;4928678;28;20043;-58
2021/10/03 08:30:07;;;;;;;14.63;4.63;;;;;;;;;;4928356;28;20420;-58
2021/10/03 08:32:33;;;;;;;4.88;3.40;;;;;;;;;;4940101;28;20047;-59
2021/10/03 08:34:58;;;;;;;6.55;3.60;;;;;;;;;;4949517;28;20023;-58
2021/10/03 08:37:23;;;;;;;6.32;3.60;;;;;;;;;;4935490;28;20031;-58
2021/10/03 08:39:49;;;;;;;5.18;3.45;;;;;;;;;;4922693;28;20028;-58
2021/10/03 08:42:15;;;;;;;6.50;3.50;;;;;;;;;;4931904;28;20029;-58
2021/10/03 08:44:41;;;;;;;6.75;3.50;;;;;;;;;;4938188;28;20036;-58
2021/10/03 08:47:07;;;;;;;5.22;3.28;;;;;;;;;;4931432;28;20035;-58
2021/10/03 08:49:33;;;;;;;5.93;3.10;;;;;;;;;;4928920;28;20454;-58
2021/10/03 08:51:59;;;;;;;5.90;3.50;;;;;;;;;;4933264;28;20036;-58
2021/10/03 08:54:24;;;;;;;8.63;3.67;;;;;;;;;;4927090;28;20525;-58
2021/10/03 08:56:50;;;;;;;4.75;3.17;;;;;;;;;;4929665;28;20028;-58
2021/10/03 08:59:15;;;;;;;5.95;3.67;;;;;;;;;;4919894;28;20054;-58
2021/10/03 09:01:52;;;;;;;5.55;3.95;;;;;;;;;;4930762;28;20097;-58
2021/10/03 09:04:35;;;;;;;5.43;3.15;;;;;;;;;;4941986;28;20029;-58
2021/10/03 09:07:08;;;;;;;6.22;3.67;;;;;;;;;;4929965;28;20399;-58
2021/10/03 09:10:00;;;;;;;9.70;3.70;;;;;;;;;;4945611;28;20070;-58
2021/10/03 09:12:33;;;;;;;6.00;3.05;;;;;;;;;;4939620;28;20028;-58
2021/10/03 09:15:02;;;;;;;5.55;3.10;;;;;;;;;;4930704;28;20161;-58
2021/10/03 09:17:30;;;;;;;5.60;3.28;;;;;;;;;;4927352;28;20115;-58
2021/10/03 09:20:12;;;;;;;6.05;3.45;;;;;;;;;;4934611;28;20047;-59
2021/10/03 09:22:58;;;;;;;5.00;3.38;;;;;;;;;;4949481;28;20032;-58
2021/10/03 09:25:36;;;;;;;5.43;3.40;;;;;;;;;;4929588;28;20036;-59
2021/10/03 09:28:10;;;;;;;5.07;3.37;;;;;;;;;;4936495;28;20415;-58
2021/10/03 09:30:50;;;;;;;4.82;3.47;;;;;;;;;;4929954;28;20333;-58
2021/10/03 09:33:16;;;;;;;6.00;3.10;;;;;;;;;;4925903;28;20056;-59
2021/10/03 09:35:54;;;;;;;4.38;3.10;;;;;;;;;;4929587;28;20060;-58
2021/10/03 09:38:20;;;;;;;5.03;3.80;;;;;;;;;;4948008;28;20107;-58
2021/10/03 09:40:45;;;;;;;5.55;3.78;;;;;;;;;;4927119;28;20063;-59
2021/10/03 09:43:12;;;;;;;6.63;3.92;;;;;;;;;;4932467;28;20027;-58
2021/10/03 09:45:38;;;;;;;5.30;3.58;;;;;;;;;;4919374;28;20028;-59
2021/10/03 09:48:08;;;;;;;6.28;3.30;;;;;;;;;;4945379;28;20022;-58
2021/10/03 09:50:39;;;;;;;8.40;3.38;;;;;;;;;;4925043;28;20024;-58
2021/10/03 09:53:04;;;;;;;5.47;3.30;;;;;;;;;;4929266;28;20630;-58
2021/10/03 09:55:31;;;;;;;8.35;3.55;;;;;;;;;;4934025;28;20757;-59
2021/10/03 09:57:58;;;;;;;4.72;3.25;;;;;;;;;;4927513;28;20105;-59
2021/10/03 10:00:28;;;;;;;8.45;3.40;;;;;;;;;;4933828;28;20023;-58
2021/10/03 10:02:54;;;;;;;3.85;2.88;;;;;;;;;;4924731;28;20036;-59
2021/10/03 10:05:22;;;;;;;4.55;3.10;;;;;;;;;;4955270;28;20070;-58
2021/10/03 10:07:48;;;;;;;5.55;3.30;;;;;;;;;;4927907;28;20151;-58
2021/10/03 10:10:14;;;;;;;6.15;3.00;;;;;;;;;;4930181;28;20549;-59
2021/10/03 10:12:56;;;;;;;5.70;3.30;;;;;;;;;;4933654;28;20041;-59
2021/10/03 10:15:24;;;;;;;5.60;3.15;;;;;;;;;;4946639;28;20033;-59
2021/10/03 10:17:50;;;;;;;6.65;3.20;;;;;;;;;;4932282;28;20039;-58
2021/10/03 10:20:20;;;;;;;6.25;3.20;;;;;;;;;;4928143;28;20699;-58
2021/10/03 10:22:56;;;;;;;6.50;3.40;;;;;;;;;;4925485;28;20024;-59
2021/10/03 10:26:00;;;;;;;5.53;3.08;;;;;;;;;;4931217;28;20032;-58
2021/10/03 10:28:28;;;;;;;6.10;3.58;;;;;;;;;;4930155;28;20039;-59
2021/10/03 10:31:04;;;;;;;5.85;3.03;;;;;;;;;;4949024;28;20303;-61
2021/10/03 10:33:53;;;;;;;3.70;2.78;;;;;;;;;;4924376;28;20529;-58
2021/10/03 10:36:28;;;;;;;4.47;3.13;;;;;;;;;;4937317;28;20035;-58
2021/10/03 10:39:09;;;;;;;6.63;4.57;;;;;;;;;;4940862;28;20044;-58
2021/10/03 10:41:53;;;;;;;4.95;3.00;;;;;;;;;;4924860;28;20035;-58
2021/10/03 10:44:27;;;;;;;5.72;3.35;;;;;;;;;;4932843;28;20029;-59
2021/10/03 10:47:06;;;;;;;3.88;2.97;;;;;;;;;;4924962;28;20079;-58
2021/10/03 10:49:39;;;;;;;4.97;2.97;;;;;;;;;;4956991;28;20059;-58
2021/10/03 10:52:17;;;;;;;4.47;2.97;;;;;;;;;;4952937;28;20120;-58
2021/10/03 10:55:21;;;;;;;3.95;2.90;;;;;;;;;;4929912;28;20134;-58
2021/10/03 10:57:51;;;;;;;6.13;3.15;;;;;;;;;;4945425;28;20047;-58
2021/10/03 11:00:28;;;;;;;4.30;3.10;;;;;;;;;;4923204;28;20055;-57
2021/10/03 11:02:59;;;;;;;6.25;3.30;;;;;;;;;;4921277;28;20024;-58
2021/10/03 11:05:47;;;;;;;5.05;2.80;;;;;;;;;;4933043;28;20515;-58
2021/10/03 11:08:21;;;;;;;4.88;3.20;;;;;;;;;;4937235;28;20032;-57
2021/10/03 11:10:58;;;;;;;4.43;2.97;;;;;;;;;;4932192;28;20118;-60
2021/10/03 11:13:46;;;;;;;5.53;2.70;;;;;;;;;;4939981;28;20059;-58
2021/10/03 11:16:42;;;;;;;4.38;3.05;;;;;;;;;;4928623;28;20043;-60
2021/10/03 11:19:22;;;;;;;5.10;3.13;;;;;;;;;;4925324;28;20050;-58
2021/10/03 11:21:52;;;;;;;4.53;3.28;;;;;;;;;;4931404;28;20030;-58
2021/10/03 11:24:19;;;;;;;4.07;2.88;;;;;;;;;;4933945;28;20123;-58
2021/10/03 11:26:50;;;;;;;5.97;2.70;;;;;;;;;;4942873;28;20042;-58
2021/10/03 11:29:17;;;;;;;4.18;3.08;;;;;;;;;;4929958;28;20032;-58
2021/10/03 11:31:48;;;;;;;3.85;2.88;;;;;;;;;;4940024;28;20040;-58
2021/10/03 11:34:33;;;;;;;5.57;2.95;;;;;;;;;;4923953;28;20066;-57
2021/10/03 11:37:10;;;;;;;5.75;3.50;;;;;;;;;;4940114;28;20058;-57
2021/10/03 11:39:50;;;;;;;4.53;3.20;;;;;;;;;;4933186;28;20035;-57
2021/10/03 11:42:27;;;;;;;4.60;3.08;;;;;;;;;;4930860;28;20516;-58
2021/10/03 11:45:11;;;;;;;5.25;3.40;;;;;;;;;;4930917;28;20105;-58
2021/10/03 11:47:52;;;;;;;6.40;3.72;;;;;;;;;;4951928;28;20035;-58
2021/10/03 11:50:23;;;;;;;5.55;3.28;;;;;;;;;;4923809;28;20122;-58
2021/10/03 11:53:08;;;;;;;5.68;3.42;;;;;;;;;;4944110;28;20035;-58
2021/10/03 11:55:36;;;;;;;6.47;3.25;;;;;;;;;;4926277;28;20044;-57
2021/10/03 11:58:10;;;;;;;7.07;3.25;;;;;;;;;;4953581;28;20024;-60
2021/10/03 12:00:48;;;;;;;5.28;2.92;;;;;;;;;;4931799;28;20031;-58
2021/10/03 12:03:15;;;;;;;4.75;3.20;;;;;;;;;;4941449;28;20024;-58
2021/10/03 12:05:41;;;;;;;4.22;2.92;;;;;;;;;;4933456;28;20218;-58
2021/10/03 12:08:12;;;;;;;5.55;2.63;;;;;;;;;;4927622;28;20036;-58
2021/10/03 12:10:43;;;;;;;4.60;2.92;;;;;;;;;;4930382;28;20559;-58
2021/10/03 12:13:30;;;;;;;4.28;3.20;;;;;;;;;;4928195;28;20039;-58
2021/10/03 12:15:59;;;;;;;6.05;3.67;;;;;;;;;;4923881;28;20031;-58
2021/10/03 12:18:24;;;;;;;4.20;2.83;;;;;;;;;;4931897;28;20048;-58
2021/10/03 12:21:02;;;;;;;4.80;3.13;;;;;;;;;;4925666;28;20020;-57
2021/10/03 12:24:07;;;;;;;5.38;3.10;;;;;;;;;;4929520;28;20067;-58
2021/10/03 12:26:45;;;;;;;5.18;2.80;;;;;;;;;;4953817;28;20166;-58
2021/10/03 12:29:18;;;;;;;4.45;3.30;;;;;;;;;;4937654;28;20027;-58
2021/10/03 12:31:47;;;;;;;4.80;3.25;;;;;;;;;;4924706;28;20039;-57
2021/10/03 12:34:13;;;;;;;4.65;3.08;;;;;;;;;;4929632;28;20049;-58
2021/10/03 12:36:38;;;;;;;4.03;2.75;;;;;;;;;;4928391;28;20031;-58
2021/10/03 12:39:04;;;;;;;4.93;3.22;;;;;;;;;;4931138;28;20027;-58
2021/10/03 12:41:29;;;;;;;5.53;3.05;;;;;;;;;;4934446;28;20043;-58
2021/10/03 12:43:58;;;;;;;5.43;2.80;;;;;;;;;;4954841;28;20132;-57
2021/10/03 12:46:24;;;;;;;5.67;3.00;;;;;;;;;;4935113;28;20054;-57
2021/10/03 12:48:50;;;;;;;3.75;2.90;;;;;;;;;;4923394;28;20275;-57
2021/10/03 12:51:16;;;;;;;5.35;2.97;;;;;;;;;;4926344;28;20031;-57
2021/10/03 12:53:42;;;;;;;5.82;3.72;;;;;;;;;;4930763;28;20036;-58
2021/10/03 12:56:08;;;;;;;5.03;2.88;;;;;;;;;;4924701;28;20476;-58
2021/10/03 12:58:33;;;;;;;4.10;2.80;;;;;;;;;;4922244;28;20036;-58
2021/10/03 13:00:58;;;;;;;4.75;3.22;;;;;;;;;;4950960;28;20494;-58
2021/10/03 13:03:24;;;;;;;6.32;2.90;;;;;;;;;;4931609;28;20043;-58
2021/10/03 13:05:50;;;;;;;4.70;2.78;;;;;;;;;;4932976;28;20071;-58
2021/10/03 13:08:15;;;;;;;3.95;2.80;;;;;;;;;;4928113;28;20477;-58
2021/10/03 13:10:41;;;;;;;3.72;2.95;;;;;;;;;;4934348;28;20042;-58
2021/10/03 13:13:07;;;;;;;3.65;2.80;;;;;;;;;;4933630;28;20090;-57
2021/10/03 13:15:33;;;;;;;5.18;3.17;;;;;;;;;;4930924;28;20028;-57
2021/10/03 13:17:58;;;;;;;6.15;3.75;;;;;;;;;;4928595;28;20032;-57
2021/10/03 13:20:24;;;;;;;9.23;2.95;;;;;;;;;;4933706;28;20048;-58
2021/10/03 13:22:49;;;;;;;5.05;3.25;;;;;;;;;;4926558;28;20066;-59
2021/10/03 13:25:15;;;;;;;5.32;3.38;;;;;;;;;;4932501;28;20068;-58
2021/10/03 13:27:40;;;;;;;7.03;3.67;;;;;;;;;;4922039;28;20045;-58
2021/10/03 13:30:08;;;;;;;5.80;3.38;;;;;;;;;;4924918;28;20470;-58
2021/10/03 13:32:34;;;;;;;5.38;3.65;;;;;;;;;;4918104;28;20035;-58
2021/10/03 13:34:59;;;;;;;6.47;3.50;;;;;;;;;;4925877;28;20077;-58
2021/10/03 13:37:25;;;;;;;6.80;3.35;;;;;;;;;;4938340;28;20474;-58
2021/10/03 13:39:50;;;;;;;5.50;3.83;;;;;;;;;;4937519;28;20166;-58
2021/10/03 13:42:16;;;;;;;3.63;2.90;;;;;;;;;;4947107;28;20031;-58
2021/10/03 13:44:41;;;;;;;4.32;3.30;;;;;;;;;;4923638;28;20037;-59
2021/10/03 13:47:06;;;;;;;7.32;3.40;;;;;;;;;;4921293;28;20573;-58
2021/10/03 13:49:32;;;;;;;4.32;3.00;;;;;;;;;;4927846;28;20131;-58
2021/10/03 13:51:57;;;;;;;5.72;4.03;;;;;;;;;;4935246;28;20490;-60
2021/10/03 13:54:23;;;;;;;7.35;4.40;;;;;;;;;;4930635;28;20035;-58
2021/10/03 13:56:48;;;;;;;7.07;4.10;;;;;;;;;;4927963;28;20077;-58
2021/10/03 13:59:13;;;;;;;7.75;4.22;;;;;;;;;;4932452;28;20036;-58
2021/10/03 14:01:39;;;;;;;6.28;4.00;;;;;;;;;;4931354;28;20458;-58
2021/10/03 14:04:04;;;;;;;11.68;4.45;;;;;;;;;;4925339;28;20032;-59
2021/10/03 14:06:30;;;;;;;9.05;4.72;;;;;;;;;;4949213;28;20044;-57
2021/10/03 14:08:56;;;;;;;7.65;5.15;;;;;;;;;;4944084;28;20020;-58
2021/10/03 14:11:22;;;;;;;7.22;4.20;;;;;;;;;;4940319;28;20043;-59
2021/10/03 14:13:47;;;;;;;6.20;4.35;;;;;;;;;;4926768;28;20032;-57
2021/10/03 14:16:13;;;;;;;4.95;3.42;;;;;;;;;;4949253;28;20128;-59
2021/10/03 14:18:38;;;;;;;6.10;3.20;;;;;;;;;;4932032;28;20121;-57
2021/10/03 14:21:04;;;;;;;6.65;3.20;;;;;;;;;;4955836;28;20037;-57
2021/10/03 14:23:29;;;;;;;5.43;3.67;;;;;;;;;;4928213;28;20059;-57
2021/10/03 14:25:55;;;;;;;5.55;3.47;;;;;;;;;;4949902;28;20035;-58
2021/10/03 14:28:20;;;;;;;5.45;3.45;;;;;;;;;;4932026;28;20109;-57
2021/10/03 14:30:45;;;;;;;3.67;3.03;;;;;;;;;;4940656;28;20139;-58
2021/10/03 14:33:11;;;;;;;5.03;3.13;;;;;;;;;;4939387;28;20116;-59
2021/10/03 14:35:37;;;;;;;4.88;3.20;;;;;;;;;;4928064;28;20133;-58
2021/10/03 14:38:03;;;;;;;4.93;2.92;;;;;;;;;;4931873;28;20455;-60
2021/10/03 14:40:28;;;;;;;6.43;3.50;;;;;;;;;;4933502;28;20043;-57
2021/10/03 14:42:54;;;;;;;4.68;3.53;;;;;;;;;;4942085;28;20621;-58
2021/10/03 14:45:21;;;;;;;8.65;5.15;;;;;;;;;;4934025;28;20027;-58
2021/10/03 14:47:51;;;;;;;6.22;3.60;;;;;;;;;;4927755;28;20028;-58